»·PEaware :: N1128 KLAS-KSAN

N1128 :: KLAS-KSAN

FLIGHT INFORMATION

Flight Status: Arrived
Operator: Privately registered:
United States
More flights under this callsign
Pilot: Siddique N. (20419)
Aircraft: ECLIPSE 500
(EA50)
More flights by this aircraft type
Origin: KLAS McCarran Intl
United States
Destination: KSAN San Diego Intl-Lindbergh
United States
More flights between these airports :: More routes between these airports
Route: +BOACH8 LVELL LUCKI1
File this flight plan on PilotEdge
Remarks:
Altitude:
(Current/Filed)
21,000ft
Speed:
(Current/Filed)
250kts
Departed: 07-Sep-20 09:41 AM
Arrived: 07-Sep-20 10:42 AM
Distance/Time
Traveled:
225nm/1:01
Distance/Time
To Go:
Arrived

Flight Plot

Page will automatically refresh every two minutes.

Flight plan parsing failed; only flown route is shown


Map Options




Map Legend


Flown Route
Filed Route
Departure Airport
Arrival Airport
Navaid (VOR, NDB)
Fix

Horizontal Profiles

Position Reports

Time Latitude Longitude Heading Altitude Ground
Speed
07-Sep-20 09:21 36.084052 -115.169884 179 2162ft 0kts
07-Sep-20 09:22 36.084052 -115.169884 179 2162ft 0kts
07-Sep-20 09:23 36.084052 -115.169884 179 2162ft 0kts
07-Sep-20 09:24 36.084052 -115.169884 179 2162ft 0kts
07-Sep-20 09:25 36.084052 -115.169884 179 2162ft 0kts
07-Sep-20 09:26 36.084052 -115.169884 179 2162ft 0kts
07-Sep-20 09:27 36.084052 -115.169884 179 2162ft 0kts
07-Sep-20 09:28 36.084052 -115.169884 179 2162ft 0kts
07-Sep-20 09:29 36.084052 -115.169884 179 2162ft 0kts
07-Sep-20 09:30 36.084052 -115.169884 179 2162ft 0kts
07-Sep-20 09:31 36.084052 -115.169884 179 2162ft 0kts
07-Sep-20 09:32 36.084052 -115.169884 179 2162ft 0kts
07-Sep-20 09:33 36.084052 -115.169884 179 2162ft 0kts
07-Sep-20 09:34 36.084052 -115.169884 179 2162ft 0kts
07-Sep-20 09:35 36.084037 -115.169884 179 2162ft 3kts
07-Sep-20 09:36 36.088906 -115.165041 26 2135ft 35kts
07-Sep-20 09:37 36.098717 -115.159510 24 2094ft 35kts
07-Sep-20 09:38 36.099846 -115.157708 77 2085ft 0kts
07-Sep-20 09:39 36.099535 -115.156525 201 2083ft 0kts
07-Sep-20 09:40 36.079578 -115.167678 205 2498ft 151kts
07-Sep-20 09:41 36.033680 -115.191522 205 4716ft 188kts
07-Sep-20 09:42 35.997597 -115.235228 242 5646ft 190kts
07-Sep-20 09:43 35.973235 -115.293711 237 6541ft 192kts
07-Sep-20 09:44 35.917902 -115.307554 187 7077ft 226kts
07-Sep-20 09:45 35.860111 -115.313040 187 9252ft 205kts
07-Sep-20 09:46 35.802510 -115.305602 175 11520ft 214kts
07-Sep-20 09:47 35.742087 -115.295537 177 13427ft 227kts
07-Sep-20 09:48 35.679208 -115.289702 184 15375ft 229kts
07-Sep-20 09:49 35.614991 -115.288855 187 17466ft 235kts
07-Sep-20 09:50 35.548882 -115.288073 185 19397ft 241kts
07-Sep-20 09:51 35.481423 -115.288852 189 20958ft 253kts
07-Sep-20 09:52 35.402720 -115.295024 189 20987ft 308kts
07-Sep-20 09:53 35.311878 -115.303548 189 20850ft 340kts
07-Sep-20 09:54 35.215384 -115.309719 184 20849ft 355kts
07-Sep-20 09:55 35.115622 -115.308685 184 20848ft 361kts
07-Sep-20 09:56 35.015122 -115.310369 186 20848ft 362kts
07-Sep-20 09:57 34.914157 -115.313684 186 20846ft 364kts
07-Sep-20 09:58 34.812591 -115.319338 196 20846ft 359kts
07-Sep-20 09:59 34.716513 -115.351423 200 20849ft 358kts
07-Sep-20 10:00 34.622618 -115.390971 205 20849ft 356kts
07-Sep-20 10:01 34.531339 -115.437072 207 21036ft 351kts
07-Sep-20 10:02 34.441177 -115.485414 207 21037ft 353kts
07-Sep-20 10:04 34.350868 -115.534028 207 21037ft 354kts
07-Sep-20 10:05 34.260606 -115.582790 207 21036ft 354kts
07-Sep-20 10:06 34.169992 -115.630694 205 21036ft 355kts
07-Sep-20 10:07 34.077314 -115.674670 203 21040ft 357kts
07-Sep-20 10:08 33.983532 -115.714651 204 21040ft 357kts
07-Sep-20 10:09 33.890954 -115.759359 205 21041ft 357kts
07-Sep-20 10:10 33.798783 -115.805079 205 21042ft 357kts
07-Sep-20 10:11 33.708043 -115.850297 205 20798ft 359kts
07-Sep-20 10:12 33.615392 -115.894692 202 20798ft 358kts
07-Sep-20 10:13 33.522548 -115.937677 212 20789ft 356kts
07-Sep-20 10:14 33.465025 -116.023674 237 18822ft 301kts
07-Sep-20 10:15 33.419722 -116.105268 237 18798ft 305kts
07-Sep-20 10:16 33.371508 -116.192488 237 18876ft 320kts
07-Sep-20 10:17 33.310222 -116.270684 205 17537ft 347kts
07-Sep-20 10:18 33.223851 -116.315965 205 13490ft 329kts
07-Sep-20 10:19 33.143428 -116.359942 205 11880ft 309kts
07-Sep-20 10:20 33.064533 -116.404871 208 11878ft 309kts
07-Sep-20 10:21 32.989915 -116.460390 220 11397ft 320kts
07-Sep-20 10:21 32.936402 -116.515263 220 8987ft 300kts
07-Sep-20 10:23 32.862148 -116.590957 220 8740ft 300kts
07-Sep-20 10:24 32.799373 -116.654074 220 8015ft 272kts
07-Sep-20 10:24 32.760834 -116.709224 240 7547ft 262kts
07-Sep-20 10:25 32.763265 -116.796561 281 6541ft 277kts
07-Sep-20 10:26 32.778455 -116.880496 281 5031ft 229kts
07-Sep-20 10:27 32.791018 -116.950554 281 5014ft 216kts
07-Sep-20 10:28 32.803947 -117.022392 281 5012ft 220kts
07-Sep-20 10:29 32.816553 -117.092955 281 5013ft 215kts
07-Sep-20 10:30 32.828969 -117.162452 281 5013ft 214kts
07-Sep-20 10:31 32.841362 -117.230853 281 4920ft 204kts
07-Sep-20 10:32 32.853221 -117.297271 281 3454ft 211kts
07-Sep-20 10:33 32.864383 -117.362458 281 3012ft 191kts
07-Sep-20 10:34 32.875432 -117.427469 281 2190ft 203kts
07-Sep-20 10:35 32.848912 -117.465776 191 2013ft 193kts
07-Sep-20 10:36 32.802799 -117.444452 115 2013ft 205kts
07-Sep-20 10:37 32.779276 -117.381803 105 2012ft 207kts
07-Sep-20 10:38 32.764580 -117.318025 105 2011ft 193kts
07-Sep-20 10:39 32.750782 -117.259516 106 1373ft 161kts
07-Sep-20 10:40 32.738393 -117.209683 105 151ft 150kts
07-Sep-20 10:41 32.731789 -117.184630 162 15ft 0kts
07-Sep-20 10:42 32.731789 -117.184630 162 15ft 0kts
07-Sep-20 10:43 32.731789 -117.184630 162 15ft 0kts
07-Sep-20 10:44 32.731789 -117.184630 162 15ft 0kts
07-Sep-20 10:45 32.731789 -117.184630 162 15ft 0kts
07-Sep-20 10:46 32.731526 -117.185734 284 17ft 17kts
07-Sep-20 10:47 32.732395 -117.192960 259 18ft 5kts

Navigation Log

Ident Type
Flight plan parsing failed, navigation log unavailable